createdAt,value
2022-09-27T00:01:37.971Z,99074.06
2022-09-27T00:04:06.021Z,99082.53
2022-09-27T00:06:39.950Z,99079.78
2022-09-27T00:09:08.826Z,99084.97
2022-09-27T00:11:38.962Z,99096.72
2022-09-27T00:14:07.095Z,99096.72
2022-09-27T00:16:36.472Z,99099.44
2022-09-27T00:19:06.256Z,99104.91
2022-09-27T00:21:35.743Z,99106.81
2022-09-27T00:24:03.888Z,99116.88
2022-09-27T00:26:31.879Z,99117.72
2022-09-27T00:28:59.883Z,99119.63
2022-09-27T00:31:30.222Z,99116.06
2022-09-27T00:33:59.198Z,99123.16
2022-09-27T00:36:27.509Z,99120.44
2022-09-27T00:38:57.008Z,99121.25
2022-09-27T00:41:26.185Z,99121.25
2022-09-27T00:43:55.179Z,99116.88
2022-09-27T00:46:26.946Z,99121.25
2022-09-27T00:49:01.451Z,99127.78
2022-09-27T00:55:22.137Z,99124.81
2022-09-27T00:57:50.121Z,99117.97
2022-09-27T01:00:18.176Z,99125.63
2022-09-27T01:02:48.343Z,99122.09
2022-09-27T01:05:17.463Z,99124.00
2022-09-27T01:07:45.461Z,99128.63
2022-09-27T01:10:13.527Z,99127.53
2022-09-27T01:12:51.316Z,99130.25
2022-09-27T01:15:24.500Z,99099.19
2022-09-27T01:17:58.428Z,99144.97
2022-09-27T01:21:09.784Z,99138.44
2022-09-27T01:23:54.696Z,99137.06
2022-09-27T01:26:30.984Z,99133.53
2022-09-27T01:29:04.436Z,99141.69
2022-09-27T01:31:35.169Z,99105.47
2022-09-27T01:34:05.535Z,99142.53
2022-09-27T01:36:43.409Z,99147.72
2022-09-27T01:39:19.000Z,99143.91
2022-09-27T01:41:48.945Z,99148.28
2022-09-27T01:47:59.731Z,99143.34
2022-09-27T01:50:30.499Z,99113.91
2022-09-27T01:53:01.333Z,99118.25
2022-09-27T01:55:31.367Z,99144.16
2022-09-27T01:58:00.751Z,99146.88
2022-09-27T02:00:28.854Z,99146.88
2022-09-27T02:02:59.509Z,99143.91
2022-09-27T02:05:30.468Z,99136.81
2022-09-27T02:07:59.443Z,99139.28
2022-09-27T02:10:29.355Z,99133.53
2022-09-27T02:12:58.517Z,99151.53
2022-09-27T02:15:26.745Z,99164.06
2022-09-27T02:17:58.268Z,99150.69
2022-09-27T02:20:30.421Z,99159.69
2022-09-27T02:23:01.437Z,99151.78
2022-09-27T02:25:32.182Z,99158.88
2022-09-27T02:28:03.150Z,99149.88
2022-09-27T02:30:31.140Z,99163.50
2022-09-27T02:33:00.821Z,99162.69
2022-09-27T02:35:30.782Z,99159.19
2022-09-27T02:37:58.758Z,99165.41
2022-09-27T02:40:27.247Z,99169.78
2022-09-27T02:42:55.268Z,99170.88
2022-09-27T02:45:24.272Z,99170.63
2022-09-27T02:48:04.737Z,99174.16
2022-09-27T02:51:03.289Z,99175.25
2022-09-27T02:53:38.383Z,99165.16
2022-09-27T02:56:11.785Z,99180.16
2022-09-27T02:58:47.664Z,99180.69
2022-09-27T03:01:18.920Z,99176.06
2022-09-27T03:03:51.599Z,99178.78
2022-09-27T03:06:20.365Z,99167.38
2022-09-27T03:08:48.317Z,99185.06
2022-09-27T03:11:16.294Z,99189.69
2022-09-27T03:14:01.833Z,99201.44
2022-09-27T03:16:32.334Z,99193.50
2022-09-27T03:19:01.739Z,99195.16
2022-09-27T03:21:29.713Z,99198.16
2022-09-27T03:23:57.779Z,99189.69
2022-09-27T03:26:25.876Z,99212.91
2022-09-27T03:28:54.059Z,99210.16
2022-09-27T03:31:22.105Z,99206.63
2022-09-27T03:33:50.139Z,99205.78
2022-09-27T03:36:19.762Z,99208.25
2022-09-27T03:38:47.758Z,99211.25
2022-09-27T03:41:15.720Z,99214.78
2022-09-27T03:43:43.981Z,99212.06
2022-09-27T03:46:12.387Z,99208.53
2022-09-27T03:48:41.949Z,99212.91
2022-09-27T03:51:12.781Z,99215.63
2022-09-27T03:53:42.899Z,99215.63
2022-09-27T03:56:11.343Z,99216.69
2022-09-27T03:58:39.370Z,99223.81
2022-09-27T04:01:08.028Z,99217.53
2022-09-27T04:03:36.422Z,99213.16
2022-09-27T04:06:04.718Z,99217.22
2022-09-27T04:08:32.679Z,99220.78
2022-09-27T04:11:02.355Z,99218.06
2022-09-27T04:13:30.336Z,99223.50
2022-09-27T04:15:58.651Z,99220.78
2022-09-27T04:18:26.599Z,99224.31
2022-09-27T04:20:54.575Z,99220.78
2022-09-27T04:23:27.666Z,99218.88
2022-09-27T04:25:58.013Z,99223.25
2022-09-27T04:28:28.046Z,99220.50
2022-09-27T04:30:56.100Z,99225.72
2022-09-27T04:33:24.767Z,99224.88
2022-09-27T04:36:10.850Z,99233.06
2022-09-27T04:38:38.856Z,99232.50
2022-09-27T04:41:07.740Z,99227.06
2022-09-27T04:43:37.121Z,99228.97
2022-09-27T04:46:05.528Z,99226.22
2022-09-27T04:48:33.559Z,99230.88
2022-09-27T04:51:02.291Z,99233.59
2022-09-27T04:53:31.509Z,99243.41
2022-09-27T04:56:02.893Z,99245.31
2022-09-27T04:58:31.089Z,99247.22
2022-09-27T05:01:00.589Z,99253.25
2022-09-27T05:03:28.997Z,99259.50
2022-09-27T05:05:57.559Z,99262.25
2022-09-27T05:08:25.743Z,99260.34
2022-09-27T05:10:53.770Z,99257.88
2022-09-27T05:13:21.768Z,99265.78
2022-09-27T05:15:50.072Z,99265.78
2022-09-27T05:18:19.426Z,99265.78
2022-09-27T05:20:47.620Z,99266.59
2022-09-27T05:23:15.897Z,99263.88
2022-09-27T05:25:43.903Z,99272.88
2022-09-27T05:28:11.864Z,99272.88
2022-09-27T05:30:39.932Z,99270.41
2022-09-27T05:33:07.923Z,99291.97
2022-09-27T05:35:40.101Z,99290.84
2022-09-27T05:38:10.178Z,99302.06
2022-09-27T05:40:42.351Z,99295.78
2022-09-27T05:43:10.695Z,99302.88
2022-09-27T05:45:39.114Z,99299.34
2022-09-27T05:48:07.146Z,99302.88
2022-09-27T05:50:35.174Z,99308.59
2022-09-27T05:53:04.535Z,99309.16
2022-09-27T05:55:32.962Z,99314.06
2022-09-27T05:58:02.312Z,99316.78
2022-09-27T06:00:30.288Z,99308.84
2022-09-27T06:02:59.045Z,99315.97
2022-09-27T06:05:29.017Z,99318.69
2022-09-27T06:07:59.889Z,99308.59
2022-09-27T06:10:29.319Z,99305.88
2022-09-27T06:13:01.330Z,99305.06
2022-09-27T06:15:29.920Z,99306.69
2022-09-27T06:17:58.229Z,99308.59
2022-09-27T06:20:26.878Z,99288.13
2022-09-27T06:22:54.957Z,99310.25
2022-09-27T06:25:22.965Z,99310.50
2022-09-27T06:27:52.333Z,99306.94
2022-09-27T06:30:20.685Z,99305.06
2022-09-27T06:32:48.741Z,99314.06
2022-09-27T06:35:17.140Z,99311.31
2022-09-27T06:37:45.119Z,99315.13
2022-09-27T06:40:13.201Z,99311.31
2022-09-27T06:42:41.266Z,99317.88
2022-09-27T06:45:13.824Z,99327.69
2022-09-27T06:47:41.860Z,99327.94
2022-09-27T06:50:12.392Z,99330.41
2022-09-27T06:52:40.357Z,99336.94
2022-09-27T06:55:10.746Z,99335.88
2022-09-27T06:57:55.908Z,99342.16
2022-09-27T07:00:26.637Z,99338.84
2022-09-27T07:02:55.283Z,99342.41
2022-09-27T07:05:23.570Z,99351.66
2022-09-27T07:07:53.688Z,99345.94
2022-09-27T07:10:21.662Z,99362.56
2022-09-27T07:12:49.688Z,99352.50
2022-09-27T07:15:18.139Z,99363.41
2022-09-27T07:17:47.477Z,99367.22
2022-09-27T07:20:15.780Z,99371.88
2022-09-27T07:22:45.218Z,99374.31
2022-09-27T07:25:13.205Z,99372.41
2022-09-27T07:27:42.051Z,99373.22
2022-09-27T07:30:13.757Z,99381.66
2022-09-27T07:32:42.374Z,99386.84
2022-09-27T07:35:15.054Z,99381.41
2022-09-27T07:37:43.099Z,99375.94
2022-09-27T07:40:11.346Z,99375.94
2022-09-27T07:42:39.323Z,99379.75
2022-09-27T07:45:14.005Z,99388.75
2022-09-27T07:47:42.138Z,99391.75
2022-09-27T07:50:11.582Z,99385.22
2022-09-27T07:52:43.181Z,99386.03
2022-09-27T07:55:11.391Z,99390.41
2022-09-27T07:57:39.350Z,99392.31
2022-09-27T08:00:10.161Z,99396.13
2022-09-27T08:02:38.282Z,99399.66
2022-09-27T08:05:07.430Z,99396.41
2022-09-27T08:07:36.831Z,99401.88
2022-09-27T08:10:05.141Z,99406.50
2022-09-27T08:12:33.121Z,99418.47
2022-09-27T08:15:02.803Z,99413.84
2022-09-27T08:17:30.794Z,99418.22
2022-09-27T08:19:58.858Z,99423.69
2022-09-27T08:22:26.961Z,99421.75
2022-09-27T08:24:56.618Z,99416.28
2022-09-27T08:27:24.596Z,99419.00
2022-09-27T08:29:52.616Z,99423.38
2022-09-27T08:32:23.296Z,99422.56
2022-09-27T08:34:51.887Z,99426.13
2022-09-27T08:37:20.268Z,99422.84
2022-09-27T08:39:48.382Z,99419.00
2022-09-27T08:42:20.877Z,99429.13
2022-09-27T08:44:54.406Z,99434.28
2022-09-27T08:47:25.139Z,99428.84
2022-09-27T08:49:54.384Z,99424.22
2022-09-27T08:52:27.649Z,99435.94
2022-09-27T08:54:56.158Z,99434.28
2022-09-27T08:57:25.880Z,99436.50
2022-09-27T08:59:56.684Z,99396.25
2022-09-27T09:02:26.414Z,99438.94
2022-09-27T09:04:55.772Z,99441.66
2022-09-27T09:07:42.589Z,99440.56
2022-09-27T09:10:40.850Z,99435.38
2022-09-27T09:13:12.087Z,99438.09
2022-09-27T09:15:55.030Z,99433.75
2022-09-27T09:18:31.059Z,99435.38
2022-09-27T09:21:02.644Z,99434.59
2022-09-27T09:23:49.789Z,99428.84
2022-09-27T09:26:20.664Z,99426.66
2022-09-27T09:28:58.079Z,99423.38
2022-09-27T09:31:30.023Z,99429.94
2022-09-27T09:33:59.425Z,99424.47
2022-09-27T09:36:30.285Z,99434.28
2022-09-27T09:38:59.984Z,99422.56
2022-09-27T09:41:29.549Z,99421.75
2022-09-27T09:43:59.918Z,99419.84
2022-09-27T09:46:29.626Z,99420.66
2022-09-27T09:48:59.134Z,99415.78
2022-09-27T09:51:28.704Z,99415.22
2022-09-27T09:53:58.627Z,99411.13
2022-09-27T09:56:29.227Z,99410.56
2022-09-27T09:58:59.063Z,99412.22
2022-09-27T10:01:29.151Z,99414.94
2022-09-27T10:03:57.292Z,99408.41
2022-09-27T10:06:25.727Z,99408.41
2022-09-27T10:08:54.949Z,99410.31
2022-09-27T10:11:25.772Z,99407.59
2022-09-27T10:13:55.436Z,99406.78
2022-09-27T10:16:25.359Z,99399.66
2022-09-27T10:18:54.381Z,99404.03
2022-09-27T10:21:23.835Z,99405.94
2022-09-27T10:24:18.022Z,99401.56
2022-09-27T10:26:47.631Z,99402.41
2022-09-27T10:29:17.601Z,99405.13
2022-09-27T10:31:48.009Z,99407.03
2022-09-27T10:34:20.332Z,99408.94
2022-09-27T10:36:48.584Z,99404.03
2022-09-27T10:39:23.773Z,99402.13
2022-09-27T10:41:51.740Z,99401.31
2022-09-27T10:44:26.261Z,99396.69
2022-09-27T10:46:56.774Z,99404.03
2022-09-27T10:49:27.836Z,99396.13
2022-09-27T10:51:56.618Z,99396.94
2022-09-27T10:54:27.687Z,99390.66
2022-09-27T10:56:57.214Z,99387.94
2022-09-27T10:59:25.242Z,99388.75
2022-09-27T11:01:53.299Z,99390.66
2022-09-27T11:04:25.326Z,99402.41
2022-09-27T11:06:53.609Z,99387.94
2022-09-27T11:09:26.408Z,99393.97
2022-09-27T11:12:08.618Z,99397.75
2022-09-27T11:14:36.598Z,99388.22
2022-09-27T11:17:11.455Z,99394.22
2022-09-27T11:19:53.942Z,99398.59
2022-09-27T11:22:29.136Z,99381.41
2022-09-27T11:27:49.512Z,99381.66
2022-09-27T11:30:18.451Z,99385.53
2022-09-27T11:33:05.605Z,99384.41
2022-09-27T11:35:47.289Z,99379.78
2022-09-27T11:38:40.823Z,99386.88
2022-09-27T11:41:28.838Z,99372.97
2022-09-27T11:44:17.900Z,99377.03
2022-09-27T11:46:45.905Z,99377.03
2022-09-27T11:49:24.483Z,99366.44
2022-09-27T11:51:59.961Z,99378.13
2022-09-27T11:54:45.566Z,99369.94
2022-09-27T11:57:18.895Z,99359.31
2022-09-27T12:00:01.170Z,99364.50
2022-09-27T12:02:48.736Z,99363.97
2022-09-27T12:05:22.209Z,99361.75
2022-09-27T12:07:53.365Z,99355.53
2022-09-27T12:10:22.585Z,99355.53
2022-09-27T12:12:52.880Z,99351.97
2022-09-27T12:15:22.700Z,99359.84
2022-09-27T12:17:51.433Z,99356.31
2022-09-27T12:20:21.896Z,99351.97
2022-09-27T12:22:58.965Z,99326.84
2022-09-27T12:25:31.010Z,99326.84
2022-09-27T12:28:01.978Z,99311.53
2022-09-27T12:30:31.469Z,99349.50
2022-09-27T12:33:03.004Z,99364.78
2022-09-27T12:35:32.021Z,99363.69
2022-09-27T12:38:01.673Z,99373.78
2022-09-27T12:40:30.905Z,99370.22
2022-09-27T12:43:01.876Z,99376.22
2022-09-27T12:45:35.815Z,99374.59
2022-09-27T12:48:06.890Z,99376.50
2022-09-27T12:50:37.659Z,99312.84
2022-09-27T12:53:07.194Z,99386.31
2022-09-27T12:56:13.039Z,99385.53
2022-09-27T12:59:11.446Z,99388.25
2022-09-27T13:02:24.813Z,99395.31
2022-09-27T13:05:05.833Z,99392.06
2022-09-27T13:07:40.851Z,99363.34
2022-09-27T13:10:39.278Z,99381.13
2022-09-27T13:13:07.526Z,99390.16
2022-09-27T13:15:36.312Z,99388.25
2022-09-27T13:18:05.463Z,99392.59
2022-09-27T13:20:46.201Z,99389.84
2022-09-27T13:23:51.167Z,99383.06
2022-09-27T13:26:23.320Z,99385.78
2022-09-27T13:29:02.158Z,99383.88
2022-09-27T13:32:17.532Z,99380.31
2022-09-27T13:34:46.325Z,99379.25
2022-09-27T13:37:51.722Z,99377.59
2022-09-27T13:40:31.326Z,99382.22
2022-09-27T13:43:38.523Z,99374.03
2022-09-27T13:46:07.877Z,99375.69
2022-09-27T13:48:44.855Z,99368.31
2022-09-27T13:51:20.058Z,99375.69
2022-09-27T13:53:57.522Z,99368.34
2022-09-27T13:56:52.530Z,99367.50
2022-09-27T13:59:22.518Z,99372.13
2022-09-27T14:01:51.599Z,99210.69
2022-09-27T14:04:21.966Z,99374.88
2022-09-27T14:06:50.895Z,99372.13
2022-09-27T14:09:20.361Z,99365.59
2022-09-27T14:11:53.488Z,99373.78
2022-09-27T14:14:24.412Z,99372.97
2022-09-27T14:16:52.434Z,99372.66
2022-09-27T14:19:21.668Z,99383.88
2022-09-27T14:22:04.080Z,99377.59
2022-09-27T14:24:32.590Z,99374.59
2022-09-27T14:27:12.519Z,99379.25
2022-09-27T14:29:44.851Z,99375.41
2022-09-27T14:32:13.841Z,99376.50
2022-09-27T14:34:41.995Z,99374.59
2022-09-27T14:37:26.098Z,99376.50
2022-09-27T14:39:59.085Z,99385.53
2022-09-27T14:42:28.598Z,99381.38
2022-09-27T14:45:01.790Z,99388.50
2022-09-27T14:47:29.768Z,99392.06
2022-09-27T14:49:59.779Z,99401.06
2022-09-27T14:52:30.102Z,99401.06
2022-09-27T14:54:59.115Z,99407.59
2022-09-27T14:57:28.275Z,99404.03
2022-09-27T14:59:57.692Z,99408.69
2022-09-27T15:02:27.044Z,99420.16
2022-09-27T15:04:55.268Z,99403.50
2022-09-27T15:07:23.340Z,99404.59
2022-09-27T15:09:51.962Z,99403.78
2022-09-27T15:12:26.741Z,99404.59
2022-09-27T15:14:58.125Z,99409.78
2022-09-27T15:17:27.449Z,99408.94
2022-09-27T15:20:02.054Z,99416.31
2022-09-27T15:22:35.449Z,99415.50
2022-09-27T15:25:19.577Z,99413.56
2022-09-27T15:27:51.952Z,99409.25
2022-09-27T15:30:21.730Z,99401.88
2022-09-27T15:32:52.564Z,99398.31
2022-09-27T15:35:25.002Z,99399.94
2022-09-27T15:37:53.573Z,99405.69
2022-09-27T15:40:56.018Z,99395.59
2022-09-27T15:43:30.211Z,99400.22
2022-09-27T15:46:00.863Z,99399.16
2022-09-27T15:48:30.291Z,99392.88
2022-09-27T15:50:58.139Z,99393.69
2022-09-27T15:53:42.875Z,99358.72
2022-09-27T15:56:16.785Z,99391.22
2022-09-27T15:58:47.570Z,99399.41
2022-09-27T16:01:21.712Z,99393.97
2022-09-27T16:03:51.409Z,99396.69
2022-09-27T16:06:19.544Z,99397.50
2022-09-27T16:08:47.479Z,99392.88
2022-09-27T16:11:17.174Z,99397.50
2022-09-27T16:13:45.518Z,99398.31
2022-09-27T16:16:18.195Z,99402.66
2022-09-27T16:18:46.195Z,99389.03
2022-09-27T16:21:15.463Z,99394.78
2022-09-27T16:23:43.633Z,99393.13
2022-09-27T16:26:11.515Z,99390.97
2022-09-27T16:28:39.416Z,99384.69
2022-09-27T16:31:07.840Z,99385.53
2022-09-27T16:33:36.817Z,99389.03
2022-09-27T16:36:07.020Z,99386.84
2022-09-27T16:38:36.288Z,99380.06
2022-09-27T16:41:04.285Z,99380.31
2022-09-27T16:43:32.564Z,99391.22
2022-09-27T16:46:08.429Z,99382.22
2022-09-27T16:48:36.417Z,99383.88
2022-09-27T16:51:25.617Z,99390.16
2022-09-27T16:53:54.812Z,99383.88
2022-09-27T16:56:22.758Z,99377.59
2022-09-27T16:58:50.627Z,99379.25
2022-09-27T17:01:18.496Z,99367.50
2022-09-27T17:03:51.781Z,99372.13
2022-09-27T17:06:23.237Z,99367.75
2022-09-27T17:08:51.119Z,99367.75
2022-09-27T17:11:20.518Z,99370.22
2022-09-27T17:13:49.710Z,99365.03
2022-09-27T17:16:17.727Z,99370.50
2022-09-27T17:18:46.057Z,99372.13
2022-09-27T17:21:14.872Z,99360.41
2022-09-27T17:23:42.780Z,99365.31
2022-09-27T17:26:15.399Z,99356.03
2022-09-27T17:28:44.838Z,99347.84
2022-09-27T17:31:15.548Z,99352.78
2022-09-27T17:33:45.215Z,99335.84
2022-09-27T17:36:14.407Z,99347.06
2022-09-27T17:38:42.403Z,99344.63
2022-09-27T17:41:11.549Z,99339.44
2022-09-27T17:43:43.679Z,99333.16
2022-09-27T17:46:13.040Z,99329.88
2022-09-27T17:48:58.142Z,99332.59
2022-09-27T17:51:26.020Z,99337.25
2022-09-27T17:53:54.158Z,99342.97
2022-09-27T17:56:22.906Z,99335.63
2022-09-27T17:58:51.397Z,99326.88
2022-09-27T18:01:21.462Z,99327.69
2022-09-27T18:03:49.673Z,99328.78
2022-09-27T18:06:17.654Z,99321.97
2022-09-27T18:08:45.632Z,99324.13
2022-09-27T18:11:14.904Z,99337.53
2022-09-27T18:13:43.513Z,99334.78
2022-09-27T18:16:12.106Z,99325.78
2022-09-27T18:18:42.376Z,99324.97
2022-09-27T18:21:11.712Z,99317.88
2022-09-27T18:23:40.023Z,99316.22
2022-09-27T18:26:09.165Z,99304.22
2022-09-27T18:28:37.610Z,99308.34
2022-09-27T18:31:06.407Z,99301.25
2022-09-27T18:33:34.920Z,99308.59
2022-09-27T18:36:05.489Z,99312.16
2022-09-27T18:38:33.323Z,99315.44
2022-09-27T18:41:06.708Z,99308.34
2022-09-27T18:43:38.686Z,99317.34
2022-09-27T18:46:33.900Z,99311.88
2022-09-27T18:48:58.200Z,99315.69
2022-09-27T18:51:28.212Z,99310.25
2022-09-27T18:53:57.016Z,99306.97
2022-09-27T18:56:25.016Z,99299.59
2022-09-27T18:58:53.027Z,99300.41
2022-09-27T19:01:21.154Z,99299.34
2022-09-27T19:03:49.534Z,99296.63
2022-09-27T19:06:18.486Z,99284.88
2022-09-27T19:08:47.755Z,99279.44
2022-09-27T19:11:16.233Z,99266.63
2022-09-27T19:13:51.093Z,99266.63
2022-09-27T19:16:20.916Z,99262.81
2022-09-27T19:18:49.147Z,99258.16
2022-09-27T19:21:17.735Z,99254.31
2022-09-27T19:23:48.772Z,99258.16
2022-09-27T19:26:17.779Z,99254.63
2022-09-27T19:28:45.828Z,99253.78
2022-09-27T19:31:14.747Z,99248.34
2022-09-27T19:33:42.960Z,99246.69
2022-09-27T19:36:11.752Z,99243.97
2022-09-27T19:38:39.815Z,99249.44
2022-09-27T19:41:10.369Z,99234.16
2022-09-27T19:43:38.657Z,99233.06
2022-09-27T19:46:07.201Z,99230.34
2022-09-27T19:48:36.698Z,99229.50
2022-09-27T19:51:04.922Z,99229.50
2022-09-27T19:53:33.394Z,99224.88
2022-09-27T19:56:01.413Z,99225.97
2022-09-27T19:58:31.016Z,99221.59
2022-09-27T20:01:00.421Z,99220.50
2022-09-27T20:03:28.931Z,99222.41
2022-09-27T20:05:56.897Z,99228.44
2022-09-27T20:08:24.910Z,99219.44
2022-09-27T20:10:56.967Z,99222.97
2022-09-27T20:13:25.361Z,99209.59
2022-09-27T20:15:55.307Z,99209.59
2022-09-27T20:18:23.677Z,99204.16
2022-09-27T20:20:51.594Z,99199.53
2022-09-27T20:23:20.271Z,99196.78
2022-09-27T20:25:48.772Z,99200.34
2022-09-27T20:28:16.851Z,99193.25
2022-09-27T20:30:44.730Z,99191.59
2022-09-27T20:33:31.910Z,99200.88
2022-09-27T20:35:59.805Z,99206.31
2022-09-27T20:38:28.009Z,99233.59
2022-09-27T20:40:56.305Z,99215.63
2022-09-27T20:43:24.796Z,99218.06
2022-09-27T20:45:52.677Z,99224.63
2022-09-27T20:48:22.061Z,99220.25
2022-09-27T20:50:50.097Z,99223.81
2022-09-27T20:53:18.346Z,99223.81
2022-09-27T20:55:46.286Z,99218.34
2022-09-27T20:58:14.146Z,99214.78
2022-09-27T21:00:42.016Z,99217.53
2022-09-27T21:03:10.206Z,99209.34
2022-09-27T21:05:39.511Z,99201.16
2022-09-27T21:08:07.555Z,99201.44
2022-09-27T21:10:35.606Z,99201.97
2022-09-27T21:13:03.790Z,99198.97
2022-09-27T21:15:33.120Z,99198.44
2022-09-27T21:18:01.319Z,99192.16
2022-09-27T21:20:29.415Z,99194.88
2022-09-27T21:22:58.907Z,99191.34
2022-09-27T21:25:26.955Z,99187.53
2022-09-27T21:27:55.443Z,99185.88
2022-09-27T21:30:24.208Z,99183.97
2022-09-27T21:32:55.373Z,99168.69
2022-09-27T21:35:23.348Z,99177.72
2022-09-27T21:37:51.341Z,99175.81
2022-09-27T21:40:20.932Z,99172.25
2022-09-27T21:42:55.596Z,99170.34
2022-09-27T21:45:25.625Z,99168.44
2022-09-27T21:47:53.539Z,99158.34
2022-09-27T21:50:21.417Z,99148.28
2022-09-27T21:52:49.609Z,99158.06
2022-09-27T21:55:17.559Z,99144.41
2022-09-27T21:57:46.959Z,99135.41
2022-09-27T22:00:15.822Z,99137.06
2022-09-27T22:02:44.151Z,99135.41
2022-09-27T22:05:12.032Z,99136.53
2022-09-27T22:07:39.942Z,99146.34
2022-09-27T22:10:08.582Z,99140.09
2022-09-27T22:12:36.414Z,99128.88
2022-09-27T22:15:08.506Z,99134.63
2022-09-27T22:17:36.400Z,99128.34
2022-09-27T22:20:04.430Z,99122.91
2022-09-27T22:22:32.315Z,99124.50
2022-09-27T22:25:00.429Z,99123.44
2022-09-27T22:27:28.283Z,99123.16
2022-09-27T22:29:56.122Z,99125.34
2022-09-27T22:32:25.379Z,99117.97
2022-09-27T22:34:53.945Z,99120.69
2022-09-27T22:37:21.810Z,99114.44
2022-09-27T22:39:49.685Z,99116.34
2022-09-27T22:42:18.668Z,99121.78
2022-09-27T22:44:46.822Z,99121.78
2022-09-27T22:47:14.696Z,99120.69
2022-09-27T22:49:43.987Z,99116.34
2022-09-27T22:52:11.929Z,99114.44
2022-09-27T22:54:40.065Z,99102.69
2022-09-27T22:57:07.967Z,99112.53
2022-09-27T22:59:35.881Z,99105.44
2022-09-27T23:02:03.757Z,99103.53
2022-09-27T23:04:31.914Z,99092.59
2022-09-27T23:07:01.134Z,99089.06
2022-09-27T23:09:29.023Z,99087.16
2022-09-27T23:11:56.863Z,99084.72
2022-09-27T23:14:26.149Z,99086.63
2022-09-27T23:16:54.840Z,99082.28
2022-09-27T23:19:23.420Z,99083.34
2022-09-27T23:21:51.448Z,99086.09
2022-09-27T23:24:21.255Z,99086.09
2022-09-27T23:27:09.297Z,99084.44
2022-09-27T23:29:37.161Z,99088.28
2022-09-27T23:32:05.361Z,99092.63
2022-09-27T23:34:33.553Z,99091.00
2022-09-27T23:37:01.701Z,99092.09
2022-09-27T23:39:30.896Z,99082.84
2022-09-27T23:41:59.027Z,99091.53
2022-09-27T23:44:27.319Z,99093.44
2022-09-27T23:47:00.147Z,99088.00
2022-09-27T23:49:28.622Z,99088.00
2022-09-27T23:51:57.058Z,99094.25
2022-09-27T23:54:25.250Z,99090.72
2022-09-27T23:56:54.516Z,99098.63
2022-09-27T23:59:22.848Z,99085.00
